Hlavní strana
METAR-TAF:

METAR-TAF

Letiště :

Madrid, Španělsko

Letiště Adolfa Suáreze

zeměpisná šířka: 40-27N, zeměpisná délka: 003-33W, výška: 609 m

Aktuální stav počasí

Zpráva byla vytvořena před 26 minutami, v 03:30 UTC
Severní vítr 7 kt
Teplota 2°C
Vlhkost vzduchu 93%
Tlak 1029 hPa
Viditelnost 10 km a více
Žádná oblačnost pod 1500 m, nevyskytují se cumulonimby.

METAR: LEMD 230330Z 35007KT CAVOK 02/01 Q1029 NOSIG

Čas: 04:56 (03:56 UTC)

Předpověď počasí

Zpráva byla vytvořena před 4 hodinami a 56 minutami, v 23:00 UTC
Předpověď platná od 23 v 00 UTC do 24 v 06 UTC
vítr z různých směrů 4 kt
Viditelnost 10 km a více
Žádná oblačnost pod 1500 m, nevyskytují se cumulonimby.
Dočasný
od 23 v 00 UTC do 23 v 09 UTC
Severoseverovýchodní vítr 6 kt
Pravděpodobnost 30% :
Dočasný
od 23 v 05 UTC do 23 v 08 UTC
Viditelnost: 3000 m
Polojasno ve výšce 500 ft
kouřmo

TAF: LEMD 222300Z 2300/2406 VRB04KT CAVOK TX17/2315Z TN01/2307Z TEMPO 2300/2309 02006KT PROB30 TEMPO 2305/2308 3000 BR SCT005

Stav a předpovědi počasí z více než 4 000 letišť (zprávy METAR a TAF).

Červené a žluté tečky na mapě představují dostupné meteorologické stanice.

Když kurzor umístíte na tečku, zobrazí se název stanice.

Pak kliknutím zobrazíte stav a předpověď počasí.

Chcete-li změnit mapu, kliknutím na zelené tlačítko se znaménkem +mapu přiblížíte, kliknutím na zelené tlačítko se znaménkem – mapu oddálíte a kliknutím na zelené šipky přejdete na sousední mapy.


METAR-TAF: